createdAt,value
2017-12-12T00:01:45.301Z,2.40
2017-12-12T00:04:12.777Z,3.80
2017-12-12T00:06:40.245Z,2.90
2017-12-12T00:09:07.702Z,3.90
2017-12-12T00:11:35.179Z,3.47
2017-12-12T00:14:03.393Z,3.03
2017-12-12T00:16:30.897Z,3.10
2017-12-12T00:18:58.364Z,2.83
2017-12-12T00:21:26.581Z,4.17
2017-12-12T00:23:54.028Z,2.60
2017-12-12T00:26:21.502Z,2.80
2017-12-12T00:28:48.951Z,2.73
2017-12-12T00:31:16.433Z,2.90
2017-12-12T00:33:43.889Z,3.23
2017-12-12T00:36:11.337Z,4.27
2017-12-12T00:38:38.804Z,3.30
2017-12-12T00:41:06.259Z,2.33
2017-12-12T00:43:33.733Z,3.53
2017-12-12T00:46:01.205Z,3.30
2017-12-12T00:48:28.673Z,1.07
2017-12-12T00:50:56.890Z,2.87
2017-12-12T00:53:24.369Z,4.20
2017-12-12T00:55:52.595Z,1.63
2017-12-12T00:58:20.057Z,2.80
2017-12-12T01:00:47.514Z,2.70
2017-12-12T01:03:15.741Z,3.70
2017-12-12T01:05:43.189Z,4.13
2017-12-12T01:08:10.674Z,3.57
2017-12-12T01:10:38.118Z,1.40
2017-12-12T01:13:05.586Z,3.10
2017-12-12T01:15:33.599Z,3.28
2017-12-12T01:18:01.074Z,3.30
2017-12-12T01:20:28.530Z,3.80
2017-12-12T01:22:55.998Z,3.50
2017-12-12T01:25:23.463Z,4.27
2017-12-12T01:27:50.929Z,3.70
2017-12-12T01:30:18.381Z,3.20
2017-12-12T01:32:45.828Z,3.97
2017-12-12T01:35:13.304Z,3.50
2017-12-12T01:37:40.771Z,4.13
2017-12-12T01:40:08.262Z,3.50
2017-12-12T01:42:35.709Z,2.20
2017-12-12T01:45:04.073Z,2.40
2017-12-12T01:47:31.542Z,4.70
2017-12-12T01:49:59.014Z,3.60
2017-12-12T01:52:27.243Z,3.50
2017-12-12T01:54:54.700Z,3.30
2017-12-12T01:57:22.161Z,4.23
2017-12-12T01:59:49.634Z,4.30
2017-12-12T02:02:17.104Z,4.17
2017-12-12T02:04:44.573Z,3.97
2017-12-12T02:07:12.022Z,6.40
2017-12-12T02:09:39.480Z,4.17
2017-12-12T02:12:06.958Z,4.57
2017-12-12T02:14:34.647Z,5.03
2017-12-12T02:17:02.118Z,6.43
2017-12-12T02:19:29.570Z,5.07
2017-12-12T02:21:57.031Z,3.80
2017-12-12T02:24:24.518Z,4.60
2017-12-12T02:26:52.730Z,4.97
2017-12-12T02:29:20.807Z,4.10
2017-12-12T02:31:48.276Z,3.80
2017-12-12T02:34:15.724Z,3.67
2017-12-12T02:36:43.274Z,4.13
2017-12-12T02:39:11.514Z,4.00
2017-12-12T02:41:39.717Z,3.00
2017-12-12T02:44:07.209Z,2.43
2017-12-12T02:46:35.242Z,3.75
2017-12-12T02:49:02.686Z,2.93
2017-12-12T02:51:30.150Z,3.07
2017-12-12T02:53:57.598Z,2.20
2017-12-12T02:56:25.110Z,4.17
2017-12-12T02:58:52.525Z,2.90
2017-12-12T03:01:19.998Z,2.83
2017-12-12T03:03:47.444Z,3.37
2017-12-12T03:06:14.889Z,3.77
2017-12-12T03:08:42.418Z,3.17
2017-12-12T03:11:09.879Z,3.03
2017-12-12T03:13:37.350Z,2.57
2017-12-12T03:16:04.837Z,2.90
2017-12-12T03:18:32.285Z,2.47
2017-12-12T03:20:59.757Z,2.50
2017-12-12T03:23:27.251Z,3.20
2017-12-12T03:25:54.724Z,2.67
2017-12-12T03:28:22.160Z,3.80
2017-12-12T03:30:49.646Z,3.03
2017-12-12T03:33:17.122Z,1.57
2017-12-12T03:35:44.569Z,2.40
2017-12-12T03:38:12.017Z,3.63
2017-12-12T03:40:39.493Z,3.33
2017-12-12T03:43:06.953Z,2.70
2017-12-12T03:45:34.449Z,3.27
2017-12-12T03:48:01.892Z,3.17
2017-12-12T03:50:29.333Z,1.73
2017-12-12T03:52:56.808Z,2.97
2017-12-12T03:55:24.260Z,4.57
2017-12-12T03:57:51.734Z,3.43
2017-12-12T04:00:19.180Z,2.20
2017-12-12T04:02:46.700Z,1.90
2017-12-12T04:05:14.149Z,4.30
2017-12-12T04:07:41.649Z,2.90
2017-12-12T04:10:09.106Z,2.80
2017-12-12T04:12:37.012Z,3.45
2017-12-12T04:17:39.826Z,3.60
2017-12-12T04:20:07.297Z,3.00
2017-12-12T04:22:34.746Z,3.23
2017-12-12T04:25:02.230Z,5.17
2017-12-12T04:27:29.684Z,2.90
2017-12-12T04:29:57.161Z,3.73
2017-12-12T04:32:24.600Z,3.93
2017-12-12T04:34:52.062Z,3.00
2017-12-12T04:37:19.533Z,3.97
2017-12-12T04:39:47.001Z,3.63
2017-12-12T04:42:14.486Z,3.60
2017-12-12T04:44:41.930Z,3.30
2017-12-12T04:47:09.382Z,3.97
2017-12-12T04:49:37.769Z,3.00
2017-12-12T04:52:05.221Z,4.47
2017-12-12T04:54:32.698Z,3.07
2017-12-12T04:57:00.929Z,2.27
2017-12-12T04:59:28.402Z,2.30
2017-12-12T05:01:55.857Z,2.30
2017-12-12T05:04:23.326Z,3.33
2017-12-12T05:06:51.546Z,4.90
2017-12-12T05:09:19.021Z,5.50
2017-12-12T05:11:46.482Z,3.93
2017-12-12T05:14:13.953Z,3.80
2017-12-12T05:16:41.486Z,3.70
2017-12-12T05:19:08.933Z,2.77
2017-12-12T05:21:36.403Z,3.77
2017-12-12T05:24:03.874Z,3.57
2017-12-12T05:26:31.321Z,2.40
2017-12-12T05:28:58.788Z,2.87
2017-12-12T05:31:26.250Z,3.00
2017-12-12T05:33:53.733Z,3.90
2017-12-12T05:36:21.212Z,3.60
2017-12-12T05:38:48.657Z,2.87
2017-12-12T05:41:16.128Z,2.20
2017-12-12T05:43:43.574Z,1.87
2017-12-12T05:46:11.065Z,2.00
2017-12-12T05:48:38.905Z,2.40
2017-12-12T05:51:06.355Z,2.17
2017-12-12T05:53:33.825Z,3.07
2017-12-12T05:56:01.293Z,2.10
2017-12-12T05:58:28.753Z,2.90
2017-12-12T06:00:56.208Z,1.33
2017-12-12T06:03:23.677Z,3.03
2017-12-12T06:05:51.142Z,2.67
2017-12-12T06:08:18.609Z,3.23
2017-12-12T06:10:46.053Z,2.33
2017-12-12T06:13:13.531Z,2.50
2017-12-12T06:15:41.081Z,3.53
2017-12-12T06:18:09.445Z,2.20
2017-12-12T06:20:36.901Z,2.47
2017-12-12T06:23:05.134Z,2.80
2017-12-12T06:25:32.628Z,4.30
2017-12-12T06:28:00.105Z,2.50
2017-12-12T06:30:27.578Z,5.07
2017-12-12T06:32:55.058Z,3.10
2017-12-12T06:35:22.542Z,3.53
2017-12-12T06:37:50.019Z,1.60
2017-12-12T06:40:17.501Z,3.97
2017-12-12T06:42:44.958Z,2.63
2017-12-12T06:45:13.429Z,3.63
2017-12-12T06:47:41.023Z,3.90
2017-12-12T06:50:09.759Z,2.93
2017-12-12T06:52:37.552Z,2.20
2017-12-12T06:55:05.149Z,2.70
2017-12-12T06:57:32.851Z,3.30
2017-12-12T07:00:01.303Z,1.90
2017-12-12T07:02:28.958Z,2.37
2017-12-12T07:04:56.514Z,2.57
2017-12-12T07:07:24.126Z,4.63
2017-12-12T07:09:51.748Z,3.00
2017-12-12T07:12:19.492Z,4.20
2017-12-12T07:14:47.187Z,3.13
2017-12-12T07:17:14.805Z,3.60
2017-12-12T07:19:42.538Z,3.47
2017-12-12T07:22:10.824Z,5.20
2017-12-12T07:24:39.138Z,4.50
2017-12-12T07:27:06.665Z,5.00
2017-12-12T07:29:34.496Z,4.60
2017-12-12T07:32:02.009Z,3.77
2017-12-12T07:34:29.548Z,4.10
2017-12-12T07:36:58.151Z,4.10
2017-12-12T07:39:25.793Z,5.73
2017-12-12T07:41:53.499Z,5.57
2017-12-12T07:44:21.364Z,5.07
2017-12-12T07:46:49.173Z,5.00
2017-12-12T07:49:16.681Z,5.90
2017-12-12T07:51:44.953Z,4.60
2017-12-12T07:54:12.652Z,5.83
2017-12-12T07:56:40.363Z,3.10
2017-12-12T07:59:08.696Z,5.87
2017-12-12T08:01:36.241Z,6.17
2017-12-12T08:04:03.918Z,5.77
2017-12-12T08:06:31.640Z,5.57
2017-12-12T08:08:59.279Z,4.10
2017-12-12T08:11:26.769Z,5.40
2017-12-12T08:13:54.354Z,6.47
2017-12-12T08:16:22.443Z,4.57
2017-12-12T08:18:50.039Z,6.03
2017-12-12T08:21:17.557Z,5.77
2017-12-12T08:23:45.255Z,3.30
2017-12-12T08:26:13.536Z,6.47
2017-12-12T08:28:43.293Z,5.70
2017-12-12T08:31:10.916Z,4.50
2017-12-12T08:33:39.910Z,3.43
2017-12-12T08:36:07.488Z,4.30
2017-12-12T08:38:35.092Z,3.53
2017-12-12T08:41:02.915Z,4.67
2017-12-12T08:43:30.499Z,4.60
2017-12-12T08:45:58.846Z,6.50
2017-12-12T08:48:26.441Z,6.77
2017-12-12T08:50:53.970Z,6.37
2017-12-12T08:53:22.457Z,5.73
2017-12-12T08:55:50.000Z,6.37
2017-12-12T08:58:18.342Z,3.83
2017-12-12T09:00:47.494Z,5.67
2017-12-12T09:03:15.187Z,3.30
2017-12-12T09:05:43.392Z,3.45
2017-12-12T09:08:11.108Z,5.80
2017-12-12T09:10:38.710Z,4.90
2017-12-12T09:13:06.316Z,6.83
2017-12-12T09:15:34.006Z,5.83
2017-12-12T09:18:01.628Z,4.10
2017-12-12T09:20:29.318Z,3.83
2017-12-12T09:22:56.950Z,6.60
2017-12-12T09:25:24.491Z,5.90
2017-12-12T09:27:52.024Z,4.70
2017-12-12T09:30:19.834Z,4.07
2017-12-12T09:32:52.192Z,5.80
2017-12-12T09:35:19.950Z,3.37
2017-12-12T09:37:47.656Z,3.17
2017-12-12T09:40:15.305Z,4.27
2017-12-12T09:42:42.923Z,2.70
2017-12-12T09:45:10.491Z,5.90
2017-12-12T09:47:37.981Z,4.37
2017-12-12T09:50:05.532Z,3.67
2017-12-12T09:52:34.517Z,3.87
2017-12-12T09:55:02.175Z,5.37
2017-12-12T09:57:29.913Z,4.83
2017-12-12T09:59:57.559Z,4.70
2017-12-12T10:02:25.294Z,2.73
2017-12-12T10:04:53.740Z,4.00
2017-12-12T10:07:21.582Z,2.77
2017-12-12T10:09:49.243Z,3.80
2017-12-12T10:12:16.802Z,1.93
2017-12-12T10:14:45.636Z,2.33
2017-12-12T10:17:13.404Z,2.27
2017-12-12T10:19:40.955Z,2.67
2017-12-12T10:22:09.093Z,3.90
2017-12-12T10:24:36.865Z,3.90
2017-12-12T10:27:04.417Z,4.20
2017-12-12T10:29:32.110Z,4.90
2017-12-12T10:32:00.507Z,4.03
2017-12-12T10:34:28.559Z,3.33
2017-12-12T10:36:56.160Z,5.10
2017-12-12T10:39:24.534Z,4.40
2017-12-12T10:41:53.057Z,4.20
2017-12-12T10:44:20.741Z,6.40
2017-12-12T10:46:48.411Z,6.27
2017-12-12T10:49:15.984Z,4.23
2017-12-12T10:51:43.540Z,4.37
2017-12-12T10:54:11.272Z,2.73
2017-12-12T10:56:38.962Z,6.10
2017-12-12T10:59:06.597Z,5.90
2017-12-12T11:01:34.236Z,7.67
2017-12-12T11:04:01.991Z,7.57
2017-12-12T11:06:31.172Z,3.67
2017-12-12T11:08:58.938Z,6.93
2017-12-12T11:11:27.346Z,5.00
2017-12-12T11:13:55.158Z,7.27
2017-12-12T11:16:22.763Z,7.20
2017-12-12T11:18:51.080Z,6.60
2017-12-12T11:21:18.771Z,6.10
2017-12-12T11:23:46.357Z,4.00
2017-12-12T11:26:15.908Z,3.20
2017-12-12T11:28:43.421Z,5.77
2017-12-12T11:31:11.995Z,7.10
2017-12-12T11:33:39.479Z,6.20
2017-12-12T11:36:07.058Z,3.10
2017-12-12T11:38:34.548Z,5.43
2017-12-12T11:41:02.049Z,5.63
2017-12-12T11:43:29.690Z,4.47
2017-12-12T11:45:57.247Z,5.47
2017-12-12T11:48:24.946Z,6.13
2017-12-12T11:50:52.628Z,3.60
2017-12-12T11:53:20.382Z,4.73
2017-12-12T11:55:47.995Z,4.70
2017-12-12T11:58:17.350Z,5.33
2017-12-12T12:00:44.873Z,3.50
2017-12-12T12:03:12.590Z,2.90
2017-12-12T12:05:40.173Z,2.30
2017-12-12T12:08:07.849Z,4.57
2017-12-12T12:10:35.615Z,4.17
2017-12-12T12:13:03.251Z,4.40
2017-12-12T12:15:30.843Z,4.50
2017-12-12T12:17:59.157Z,2.50
2017-12-12T12:20:26.676Z,4.20
2017-12-12T12:22:54.324Z,2.23
2017-12-12T12:25:22.842Z,4.60
2017-12-12T12:27:51.172Z,3.50
2017-12-12T12:30:19.380Z,2.17
2017-12-12T12:32:48.046Z,4.87
2017-12-12T12:35:15.788Z,3.17
2017-12-12T12:37:44.524Z,4.27
2017-12-12T12:40:12.146Z,2.27
2017-12-12T12:42:40.039Z,5.33
2017-12-12T12:45:07.709Z,3.80
2017-12-12T12:47:35.334Z,4.10
2017-12-12T12:50:02.934Z,3.40
2017-12-12T12:52:31.380Z,4.30
2017-12-12T12:54:59.668Z,4.10
2017-12-12T12:57:27.216Z,4.97
2017-12-12T12:59:54.785Z,2.90
2017-12-12T13:02:22.523Z,5.40
2017-12-12T13:04:50.008Z,4.00
2017-12-12T13:07:18.652Z,5.80
2017-12-12T13:09:46.546Z,5.80
2017-12-12T13:12:14.101Z,7.20
2017-12-12T13:14:41.772Z,4.63
2017-12-12T13:17:09.558Z,6.40
2017-12-12T13:19:38.011Z,6.33
2017-12-12T13:22:05.602Z,6.00
2017-12-12T13:24:33.092Z,6.67
2017-12-12T13:27:00.555Z,6.87
2017-12-12T13:29:28.013Z,6.47
2017-12-12T13:31:56.297Z,6.07
2017-12-12T13:34:24.233Z,6.30
2017-12-12T13:36:52.003Z,6.47
2017-12-12T13:39:19.648Z,4.70
2017-12-12T13:41:47.210Z,6.53
2017-12-12T13:44:14.718Z,6.10
2017-12-12T13:46:43.033Z,5.80
2017-12-12T13:49:10.559Z,7.90
2017-12-12T13:51:38.865Z,5.40
2017-12-12T13:54:06.590Z,7.03
2017-12-12T13:56:34.801Z,5.03
2017-12-12T13:59:03.072Z,8.63
2017-12-12T14:01:30.649Z,9.80
2017-12-12T14:03:58.341Z,10.13
2017-12-12T14:06:25.962Z,10.57
2017-12-12T14:08:54.453Z,7.87
2017-12-12T14:11:21.978Z,7.27
2017-12-12T14:13:49.761Z,11.30
2017-12-12T14:16:17.412Z,10.57
2017-12-12T14:18:45.059Z,8.70
2017-12-12T14:21:12.601Z,12.43
2017-12-12T14:23:40.434Z,10.00
2017-12-12T14:26:08.756Z,14.40
2017-12-12T14:28:37.109Z,11.23
2017-12-12T14:31:05.264Z,8.33
2017-12-12T14:33:33.994Z,11.23
2017-12-12T14:36:01.593Z,11.67
2017-12-12T14:38:29.159Z,11.43
2017-12-12T14:40:56.710Z,16.00
2017-12-12T14:43:24.450Z,12.48
2017-12-12T14:45:53.060Z,17.43
2017-12-12T14:48:20.738Z,16.37
2017-12-12T14:50:48.309Z,15.50
2017-12-12T14:53:15.910Z,14.80
2017-12-12T14:55:43.544Z,19.50
2017-12-12T14:58:11.364Z,18.37
2017-12-12T15:00:38.947Z,15.17
2017-12-12T15:03:06.758Z,11.20
2017-12-12T15:05:34.442Z,18.50
2017-12-12T15:08:02.101Z,17.27
2017-12-12T15:10:30.312Z,11.80
2017-12-12T15:12:57.853Z,12.33
2017-12-12T15:15:26.122Z,20.10
2017-12-12T15:17:53.789Z,14.47
2017-12-12T15:20:21.525Z,9.43
2017-12-12T15:22:49.191Z,12.90
2017-12-12T15:25:17.785Z,13.87
2017-12-12T15:27:45.345Z,12.60
2017-12-12T15:30:12.998Z,9.20
2017-12-12T15:32:40.653Z,9.80
2017-12-12T15:35:08.219Z,15.13
2017-12-12T15:37:35.714Z,11.00
2017-12-12T15:40:03.438Z,15.23
2017-12-12T15:42:32.084Z,10.40
2017-12-12T15:44:59.695Z,10.47
2017-12-12T15:47:28.095Z,11.90
2017-12-12T15:49:55.666Z,9.50
2017-12-12T15:52:23.233Z,11.90
2017-12-12T15:54:51.978Z,8.40
2017-12-12T15:57:19.586Z,9.00
2017-12-12T15:59:47.204Z,9.57
2017-12-12T16:02:14.832Z,13.13
2017-12-12T16:04:42.550Z,14.50
2017-12-12T16:07:10.141Z,14.30
2017-12-12T16:09:37.745Z,9.27
2017-12-12T16:12:05.203Z,12.20
2017-12-12T16:14:32.995Z,14.23
2017-12-12T16:17:01.313Z,17.10
2017-12-12T16:19:28.894Z,17.70
2017-12-12T16:21:56.539Z,9.43
2017-12-12T16:24:24.081Z,15.33
2017-12-12T16:26:52.778Z,16.73
2017-12-12T16:29:20.331Z,14.87
2017-12-12T16:31:48.113Z,14.40
2017-12-12T16:34:16.308Z,14.10
2017-12-12T16:36:43.958Z,18.80
2017-12-12T16:39:11.798Z,20.47
2017-12-12T16:41:39.435Z,16.17
2017-12-12T16:44:07.904Z,19.37
2017-12-12T16:46:37.157Z,16.60
2017-12-12T16:49:04.782Z,18.60
2017-12-12T16:51:32.507Z,17.50
2017-12-12T16:54:00.195Z,22.87
2017-12-12T16:56:28.716Z,15.90
2017-12-12T16:58:56.338Z,17.33
2017-12-12T17:01:24.625Z,21.40
2017-12-12T17:03:53.212Z,20.45
2017-12-12T17:06:20.772Z,18.00
2017-12-12T17:08:48.646Z,20.03
2017-12-12T17:11:16.516Z,19.77
2017-12-12T17:13:44.777Z,20.87
2017-12-12T17:16:13.700Z,24.03
2017-12-12T17:18:41.385Z,20.97
2017-12-12T17:21:09.879Z,20.40
2017-12-12T17:23:37.537Z,21.50
2017-12-12T17:26:07.216Z,22.87
2017-12-12T17:28:34.787Z,20.03
2017-12-12T17:31:02.328Z,19.90
2017-12-12T17:33:29.988Z,21.40
2017-12-12T17:35:59.590Z,20.33
2017-12-12T17:38:27.202Z,21.13
2017-12-12T17:40:55.489Z,21.10
2017-12-12T17:43:24.130Z,19.55
2017-12-12T17:45:51.632Z,19.63
2017-12-12T17:48:19.246Z,19.70
2017-12-12T17:50:46.769Z,18.17
2017-12-12T17:53:26.165Z,20.40
2017-12-12T17:55:53.936Z,17.83
2017-12-12T17:58:21.633Z,20.20
2017-12-12T18:00:49.116Z,14.67
2017-12-12T18:03:18.761Z,17.40
2017-12-12T18:05:48.777Z,18.60
2017-12-12T18:08:17.649Z,15.77
2017-12-12T18:10:46.374Z,20.77
2017-12-12T18:13:14.291Z,16.07
2017-12-12T18:15:44.102Z,19.50
2017-12-12T18:18:11.820Z,20.30
2017-12-12T18:20:40.855Z,19.77
2017-12-12T18:23:08.849Z,19.53
2017-12-12T18:25:37.089Z,17.33
2017-12-12T18:28:05.429Z,23.47
2017-12-12T18:30:35.200Z,19.13
2017-12-12T18:33:05.803Z,18.83
2017-12-12T18:35:33.502Z,17.33
2017-12-12T18:38:01.700Z,18.40
2017-12-12T18:40:29.345Z,18.10
2017-12-12T18:42:57.147Z,18.50
2017-12-12T18:45:25.043Z,19.73
2017-12-12T18:47:52.661Z,19.50
2017-12-12T18:50:20.978Z,20.83
2017-12-12T18:52:48.721Z,20.58
2017-12-12T18:55:16.440Z,18.60
2017-12-12T18:57:44.132Z,21.00
2017-12-12T19:00:12.130Z,19.03
2017-12-12T19:02:39.946Z,21.53
2017-12-12T19:05:07.585Z,19.83
2017-12-12T19:07:35.233Z,22.00
2017-12-12T19:10:02.741Z,20.20
2017-12-12T19:12:30.442Z,19.57
2017-12-12T19:14:59.026Z,20.40
2017-12-12T19:17:26.583Z,21.27
2017-12-12T19:19:55.042Z,20.42
2017-12-12T19:22:23.429Z,21.93
2017-12-12T19:24:50.947Z,19.93
2017-12-12T19:27:18.774Z,23.03
2017-12-12T19:29:46.434Z,23.23
2017-12-12T19:32:14.104Z,21.17
2017-12-12T19:34:41.923Z,21.70
2017-12-12T19:37:09.896Z,23.23
2017-12-12T19:39:37.385Z,22.33
2017-12-12T19:42:09.205Z,18.37
2017-12-12T19:44:37.148Z,22.37
2017-12-12T19:47:05.746Z,21.10
2017-12-12T19:49:33.565Z,21.37
2017-12-12T19:52:01.092Z,23.87
2017-12-12T19:54:28.610Z,21.20
2017-12-12T19:56:56.418Z,21.97
2017-12-12T19:59:24.353Z,21.17
2017-12-12T20:01:54.771Z,22.67
2017-12-12T20:04:22.529Z,21.50
2017-12-12T20:06:50.859Z,21.83
2017-12-12T20:09:19.123Z,23.90
2017-12-12T20:11:46.606Z,20.90
2017-12-12T20:14:14.093Z,25.23
2017-12-12T20:16:41.714Z,23.50
2017-12-12T20:19:09.258Z,22.70
2017-12-12T20:21:37.474Z,22.00
2017-12-12T20:24:05.148Z,24.37
2017-12-12T20:26:32.637Z,23.20
2017-12-12T20:29:00.121Z,23.63
2017-12-12T20:31:28.284Z,21.30
2017-12-12T20:33:56.756Z,21.80
2017-12-12T20:36:25.147Z,23.40
2017-12-12T20:38:52.681Z,25.23
2017-12-12T20:41:20.128Z,24.27
2017-12-12T20:43:47.846Z,24.00
2017-12-12T20:46:15.389Z,23.27
2017-12-12T20:48:43.689Z,22.70
2017-12-12T20:51:11.179Z,22.47
2017-12-12T20:53:38.624Z,22.93
2017-12-12T20:56:06.110Z,21.90
2017-12-12T20:58:33.590Z,21.67
2017-12-12T21:01:01.092Z,21.77
2017-12-12T21:03:30.040Z,22.00
2017-12-12T21:05:58.494Z,23.20
2017-12-12T21:08:25.956Z,24.20
2017-12-12T21:10:53.442Z,21.87
2017-12-12T21:13:21.742Z,23.53
2017-12-12T21:15:50.042Z,23.57
2017-12-12T21:18:17.545Z,23.83
2017-12-12T21:20:45.042Z,23.27
2017-12-12T21:23:12.570Z,19.73
2017-12-12T21:25:40.140Z,21.87
2017-12-12T21:28:07.683Z,21.27
2017-12-12T21:30:35.339Z,21.27
2017-12-12T21:33:02.876Z,21.20
2017-12-12T21:35:30.494Z,22.00
2017-12-12T21:37:58.775Z,15.50
2017-12-12T21:40:27.097Z,20.77
2017-12-12T21:42:54.574Z,20.80
2017-12-12T21:45:22.174Z,22.10
2017-12-12T21:47:49.810Z,20.60
2017-12-12T21:50:17.370Z,18.97
2017-12-12T21:52:45.214Z,22.20
2017-12-12T21:55:13.102Z,19.50
2017-12-12T21:57:40.767Z,20.40
2017-12-12T22:00:08.541Z,19.27
2017-12-12T22:02:36.392Z,19.40
2017-12-12T22:05:04.186Z,20.40
2017-12-12T22:07:32.082Z,21.10
2017-12-12T22:10:01.583Z,20.40
2017-12-12T22:12:29.332Z,21.23
2017-12-12T22:14:57.859Z,19.00
2017-12-12T22:17:25.649Z,19.80
2017-12-12T22:19:53.266Z,19.40
2017-12-12T22:22:20.897Z,16.57
2017-12-12T22:24:48.529Z,19.37
2017-12-12T22:27:16.179Z,18.20
2017-12-12T22:29:43.857Z,20.40
2017-12-12T22:32:11.529Z,18.30
2017-12-12T22:34:39.220Z,18.20
2017-12-12T22:37:08.080Z,17.53
2017-12-12T22:39:35.719Z,16.70
2017-12-12T22:42:03.467Z,18.27
2017-12-12T22:44:31.149Z,11.70
2017-12-12T22:46:59.376Z,15.50
2017-12-12T22:49:27.116Z,18.17
2017-12-12T22:51:54.701Z,18.33
2017-12-12T22:54:22.357Z,18.20
2017-12-12T22:56:50.163Z,18.70
2017-12-12T22:59:17.890Z,16.80
2017-12-12T23:01:45.500Z,19.70
2017-12-12T23:04:13.263Z,18.07
2017-12-12T23:06:41.073Z,20.70
2017-12-12T23:09:08.983Z,18.40
2017-12-12T23:11:36.732Z,11.90
2017-12-12T23:14:04.415Z,17.03
2017-12-12T23:16:32.055Z,17.10
2017-12-12T23:19:00.442Z,18.20
2017-12-12T23:21:28.223Z,18.00
2017-12-12T23:23:55.923Z,15.77
2017-12-12T23:26:23.549Z,16.30
2017-12-12T23:28:51.312Z,16.23
2017-12-12T23:31:19.056Z,17.40
2017-12-12T23:33:46.743Z,15.00
2017-12-12T23:36:14.431Z,17.00
2017-12-12T23:38:42.180Z,15.30
2017-12-12T23:41:09.855Z,14.23
2017-12-12T23:43:37.557Z,14.20
2017-12-12T23:46:06.102Z,15.90
2017-12-12T23:48:33.865Z,16.63
2017-12-12T23:51:02.430Z,14.47
2017-12-12T23:53:30.175Z,15.63
2017-12-12T23:55:57.841Z,19.23
2017-12-12T23:58:25.588Z,16.10
